sensor_id;sensor_type;location;lat;lon;timestamp;pressure;altitude;pressure_sealevel;temperature;humidity
74627;BME280;63132;52.268;5.192;2023-09-08T00:00:09;101543.50;;;24.43;54.20
74627;BME280;63132;52.268;5.192;2023-09-08T00:02:34;101548.28;;;24.27;54.78
74627;BME280;63132;52.268;5.192;2023-09-08T00:05:00;101541.63;;;24.78;53.70
74627;BME280;63132;52.268;5.192;2023-09-08T00:07:25;101540.41;;;24.31;54.89
74627;BME280;63132;52.268;5.192;2023-09-08T00:09:50;101541.03;;;24.36;55.20
74627;BME280;63132;52.268;5.192;2023-09-08T00:12:16;101541.88;;;24.51;53.93
74627;BME280;63132;52.268;5.192;2023-09-08T00:14:42;101542.47;;;24.55;54.02
74627;BME280;63132;52.268;5.192;2023-09-08T00:17:07;101542.94;;;24.29;54.78
74627;BME280;63132;52.268;5.192;2023-09-08T00:19:33;101536.34;;;24.33;54.83
74627;BME280;63132;52.268;5.192;2023-09-08T00:21:58;101535.91;;;24.49;54.31
74627;BME280;63132;52.268;5.192;2023-09-08T00:24:24;101545.69;;;23.91;55.67
74627;BME280;63132;52.268;5.192;2023-09-08T00:26:49;101538.47;;;23.90;56.11
74627;BME280;63132;52.268;5.192;2023-09-08T00:29:14;101543.47;;;23.95;55.84
74627;BME280;63132;52.268;5.192;2023-09-08T00:31:42;101535.63;;;23.90;56.20
74627;BME280;63132;52.268;5.192;2023-09-08T00:34:07;101540.88;;;24.06;55.69
74627;BME280;63132;52.268;5.192;2023-09-08T00:36:33;101536.84;;;23.98;55.92
74627;BME280;63132;52.268;5.192;2023-09-08T00:38:58;101543.28;;;23.98;55.85
74627;BME280;63132;52.268;5.192;2023-09-08T00:41:24;101545.09;;;23.87;56.26
74627;BME280;63132;52.268;5.192;2023-09-08T00:43:50;101551.16;;;23.70;56.58
74627;BME280;63132;52.268;5.192;2023-09-08T00:46:16;101542.53;;;23.65;56.75
74627;BME280;63132;52.268;5.192;2023-09-08T00:48:42;101539.69;;;23.65;56.78
74627;BME280;63132;52.268;5.192;2023-09-08T00:51:08;101546.63;;;23.64;57.13
74627;BME280;63132;52.268;5.192;2023-09-08T00:53:35;101545.19;;;23.59;56.93
74627;BME280;63132;52.268;5.192;2023-09-08T00:56:01;101549.75;;;23.57;57.12
74627;BME280;63132;52.268;5.192;2023-09-08T00:58:27;101544.00;;;23.42;57.62
74627;BME280;63132;52.268;5.192;2023-09-08T01:00:52;101542.59;;;23.37;57.39
74627;BME280;63132;52.268;5.192;2023-09-08T01:03:18;101552.63;;;23.38;57.78
74627;BME280;63132;52.268;5.192;2023-09-08T01:05:43;101545.28;;;23.32;58.06
74627;BME280;63132;52.268;5.192;2023-09-08T01:08:12;101540.41;;;23.32;57.95
74627;BME280;63132;52.268;5.192;2023-09-08T01:10:38;101534.28;;;23.34;57.99
74627;BME280;63132;52.268;5.192;2023-09-08T01:13:04;101537.94;;;23.25;58.29
74627;BME280;63132;52.268;5.192;2023-09-08T01:15:29;101534.97;;;23.19;58.64
74627;BME280;63132;52.268;5.192;2023-09-08T01:17:55;101539.53;;;23.17;58.46
74627;BME280;63132;52.268;5.192;2023-09-08T01:20:23;101535.88;;;23.26;58.08
74627;BME280;63132;52.268;5.192;2023-09-08T01:25:35;101545.28;;;23.32;57.91
74627;BME280;63132;52.268;5.192;2023-09-08T01:28:04;101541.81;;;23.37;58.20
74627;BME280;63132;52.268;5.192;2023-09-08T01:30:30;101542.47;;;23.23;58.14
74627;BME280;63132;52.268;5.192;2023-09-08T01:32:58;101535.88;;;23.26;58.21
74627;BME280;63132;52.268;5.192;2023-09-08T01:35:25;101539.50;;;23.26;58.07
74627;BME280;63132;52.268;5.192;2023-09-08T01:37:50;101540.44;;;23.23;57.93
74627;BME280;63132;52.268;5.192;2023-09-08T01:40:16;101531.53;;;23.06;58.76
74627;BME280;63132;52.268;5.192;2023-09-08T01:42:42;101545.78;;;23.21;58.46
74627;BME280;63132;52.268;5.192;2023-09-08T01:45:08;101545.16;;;23.26;58.09
74627;BME280;63132;52.268;5.192;2023-09-08T01:47:34;101539.97;;;23.25;58.04
74627;BME280;63132;52.268;5.192;2023-09-08T01:50:00;101539.00;;;23.28;57.84
74627;BME280;63132;52.268;5.192;2023-09-08T01:52:26;101531.69;;;23.03;58.59
74627;BME280;63132;52.268;5.192;2023-09-08T01:54:51;101535.31;;;23.03;58.90
74627;BME280;63132;52.268;5.192;2023-09-08T01:57:17;101540.09;;;23.30;57.84
74627;BME280;63132;52.268;5.192;2023-09-08T01:59:42;101534.00;;;23.23;57.94
74627;BME280;63132;52.268;5.192;2023-09-08T02:02:09;101529.44;;;23.16;58.43
74627;BME280;63132;52.268;5.192;2023-09-08T02:04:35;101531.03;;;23.17;57.66
74627;BME280;63132;52.268;5.192;2023-09-08T02:07:00;101528.22;;;23.08;58.60
74627;BME280;63132;52.268;5.192;2023-09-08T02:09:31;101534.38;;;22.70;59.46
74627;BME280;63132;52.268;5.192;2023-09-08T02:11:57;101530.59;;;22.54;60.05
74627;BME280;63132;52.268;5.192;2023-09-08T02:14:22;101539.53;;;22.53;59.86
74627;BME280;63132;52.268;5.192;2023-09-08T02:16:48;101537.81;;;22.46;60.03
74627;BME280;63132;52.268;5.192;2023-09-08T02:19:13;101530.31;;;22.52;59.95
74627;BME280;63132;52.268;5.192;2023-09-08T02:21:38;101532.03;;;22.59;60.01
74627;BME280;63132;52.268;5.192;2023-09-08T02:24:04;101532.47;;;22.76;58.84
74627;BME280;63132;52.268;5.192;2023-09-08T02:26:30;101536.72;;;22.53;59.82
74627;BME280;63132;52.268;5.192;2023-09-08T02:28:58;101536.56;;;22.38;59.78
74627;BME280;63132;52.268;5.192;2023-09-08T02:31:23;101539.03;;;22.27;60.51
74627;BME280;63132;52.268;5.192;2023-09-08T02:33:48;101531.69;;;22.29;60.59
74627;BME280;63132;52.268;5.192;2023-09-08T02:36:14;101534.50;;;22.29;60.51
74627;BME280;63132;52.268;5.192;2023-09-08T02:38:39;101534.34;;;22.24;60.53
74627;BME280;63132;52.268;5.192;2023-09-08T02:41:04;101535.28;;;22.21;60.92
74627;BME280;63132;52.268;5.192;2023-09-08T02:43:30;101532.47;;;22.21;60.85
74627;BME280;63132;52.268;5.192;2023-09-08T02:45:55;101525.09;;;22.14;60.92
74627;BME280;63132;52.268;5.192;2023-09-08T02:48:20;101530.09;;;22.19;61.02
74627;BME280;63132;52.268;5.192;2023-09-08T02:50:46;101526.97;;;22.08;60.88
74627;BME280;63132;52.268;5.192;2023-09-08T02:53:11;101526.13;;;21.98;61.28
74627;BME280;63132;52.268;5.192;2023-09-08T02:55:36;101526.97;;;22.17;60.60
74627;BME280;63132;52.268;5.192;2023-09-08T02:58:02;101522.75;;;22.13;60.63
74627;BME280;63132;52.268;5.192;2023-09-08T03:00:27;101524.94;;;22.18;60.68
74627;BME280;63132;52.268;5.192;2023-09-08T03:02:52;101532.31;;;22.15;61.05
74627;BME280;63132;52.268;5.192;2023-09-08T03:05:17;101527.44;;;22.25;60.54
74627;BME280;63132;52.268;5.192;2023-09-08T03:07:43;101529.50;;;22.33;60.41
74627;BME280;63132;52.268;5.192;2023-09-08T03:10:08;101531.53;;;22.33;60.28
74627;BME280;63132;52.268;5.192;2023-09-08T03:12:34;101523.72;;;22.37;60.18
74627;BME280;63132;52.268;5.192;2023-09-08T03:15:01;101523.84;;;22.33;60.07
74627;BME280;63132;52.268;5.192;2023-09-08T03:17:26;101527.44;;;22.34;60.25
74627;BME280;63132;52.268;5.192;2023-09-08T03:19:52;101532.00;;;22.41;59.95
74627;BME280;63132;52.268;5.192;2023-09-08T03:22:18;101522.44;;;22.38;59.82
74627;BME280;63132;52.268;5.192;2023-09-08T03:24:43;101520.25;;;22.51;59.48
74627;BME280;63132;52.268;5.192;2023-09-08T03:27:08;101516.94;;;22.25;60.20
74627;BME280;63132;52.268;5.192;2023-09-08T03:29:34;101519.28;;;22.27;59.87
74627;BME280;63132;52.268;5.192;2023-09-08T03:31:59;101516.19;;;22.61;59.33
74627;BME280;63132;52.268;5.192;2023-09-08T03:34:25;101514.28;;;22.31;60.03
74627;BME280;63132;52.268;5.192;2023-09-08T03:36:53;101510.03;;;22.26;59.98
74627;BME280;63132;52.268;5.192;2023-09-08T03:39:18;101503.63;;;22.17;60.13
74627;BME280;63132;52.268;5.192;2023-09-08T03:41:44;101509.09;;;22.11;60.36
74627;BME280;63132;52.268;5.192;2023-09-08T03:44:10;101507.38;;;22.14;60.46
74627;BME280;63132;52.268;5.192;2023-09-08T03:46:36;101508.63;;;22.13;60.64
74627;BME280;63132;52.268;5.192;2023-09-08T03:49:01;101506.41;;;22.07;60.14
74627;BME280;63132;52.268;5.192;2023-09-08T03:51:29;101505.34;;;22.14;60.27
74627;BME280;63132;52.268;5.192;2023-09-08T03:53:55;101510.50;;;22.16;60.08
74627;BME280;63132;52.268;5.192;2023-09-08T03:56:20;101505.19;;;22.18;60.31
74627;BME280;63132;52.268;5.192;2023-09-08T03:58:47;101505.75;;;21.94;60.65
74627;BME280;63132;52.268;5.192;2023-09-08T04:01:12;101510.50;;;22.34;59.48
74627;BME280;63132;52.268;5.192;2023-09-08T04:03:37;101503.31;;;22.24;60.21
74627;BME280;63132;52.268;5.192;2023-09-08T04:06:03;101501.91;;;22.37;59.32
74627;BME280;63132;52.268;5.192;2023-09-08T04:08:28;101506.78;;;22.46;59.18
74627;BME280;63132;52.268;5.192;2023-09-08T04:10:56;101504.56;;;22.23;59.76
74627;BME280;63132;52.268;5.192;2023-09-08T04:13:21;101508.25;;;21.92;60.33
74627;BME280;63132;52.268;5.192;2023-09-08T04:15:47;101506.81;;;21.78;60.77
74627;BME280;63132;52.268;5.192;2023-09-08T04:18:12;101507.94;;;21.99;60.31
74627;BME280;63132;52.268;5.192;2023-09-08T04:20:37;101510.91;;;21.96;60.55
74627;BME280;63132;52.268;5.192;2023-09-08T04:23:03;101512.41;;;22.28;59.53
74627;BME280;63132;52.268;5.192;2023-09-08T04:25:28;101508.44;;;21.98;59.82
74627;BME280;63132;52.268;5.192;2023-09-08T04:27:53;101503.91;;;22.19;59.65
74627;BME280;63132;52.268;5.192;2023-09-08T04:30:19;101506.00;;;22.46;58.70
74627;BME280;63132;52.268;5.192;2023-09-08T04:32:44;101500.97;;;22.22;59.78
74627;BME280;63132;52.268;5.192;2023-09-08T04:35:09;101503.31;;;22.24;59.44
74627;BME280;63132;52.268;5.192;2023-09-08T04:37:35;101505.47;;;22.10;60.10
74627;BME280;63132;52.268;5.192;2023-09-08T04:40:02;101501.28;;;21.66;61.05
74627;BME280;63132;52.268;5.192;2023-09-08T04:42:28;101497.66;;;21.65;61.37
74627;BME280;63132;52.268;5.192;2023-09-08T04:44:53;101503.47;;;21.62;61.15
74627;BME280;63132;52.268;5.192;2023-09-08T04:47:19;101504.44;;;21.68;60.74
74627;BME280;63132;52.268;5.192;2023-09-08T04:49:44;101507.56;;;21.70;60.77
74627;BME280;63132;52.268;5.192;2023-09-08T04:52:10;101507.06;;;21.62;61.00
74627;BME280;63132;52.268;5.192;2023-09-08T04:54:36;101501.91;;;21.61;61.04
74627;BME280;63132;52.268;5.192;2023-09-08T04:57:01;101500.66;;;21.62;61.14
74627;BME280;63132;52.268;5.192;2023-09-08T04:59:27;101511.56;;;21.60;61.31
74627;BME280;63132;52.268;5.192;2023-09-08T05:01:53;101510.78;;;21.59;61.57
74627;BME280;63132;52.268;5.192;2023-09-08T05:04:19;101517.28;;;21.69;61.24
74627;BME280;63132;52.268;5.192;2023-09-08T05:06:44;101503.47;;;21.62;61.13
74627;BME280;63132;52.268;5.192;2023-09-08T05:09:09;101507.66;;;21.57;61.18
74627;BME280;63132;52.268;5.192;2023-09-08T05:11:35;101503.59;;;21.58;61.29
74627;BME280;63132;52.268;5.192;2023-09-08T05:14:00;101502.69;;;21.70;61.00
74627;BME280;63132;52.268;5.192;2023-09-08T05:16:25;101509.69;;;21.56;61.45
74627;BME280;63132;52.268;5.192;2023-09-08T05:19:03;101505.44;;;21.52;61.78
74627;BME280;63132;52.268;5.192;2023-09-08T05:21:28;101509.91;;;21.71;61.09
74627;BME280;63132;52.268;5.192;2023-09-08T05:23:53;101503.19;;;21.78;60.60
74627;BME280;63132;52.268;5.192;2023-09-08T05:26:20;101506.69;;;22.00;60.03
74627;BME280;63132;52.268;5.192;2023-09-08T05:28:45;101503.88;;;21.91;60.55
74627;BME280;63132;52.268;5.192;2023-09-08T05:31:10;101511.66;;;21.78;60.97
74627;BME280;63132;52.268;5.192;2023-09-08T05:33:35;101501.94;;;21.79;60.90
74627;BME280;63132;52.268;5.192;2023-09-08T05:36:01;101499.84;;;22.10;60.14
74627;BME280;63132;52.268;5.192;2023-09-08T05:38:26;101517.78;;;21.86;60.75
74627;BME280;63132;52.268;5.192;2023-09-08T05:40:53;101514.91;;;22.26;59.52
74627;BME280;63132;52.268;5.192;2023-09-08T05:43:18;101512.97;;;22.04;59.96
74627;BME280;63132;52.268;5.192;2023-09-08T05:45:43;101511.38;;;22.03;60.59
74627;BME280;63132;52.268;5.192;2023-09-08T05:48:09;101515.50;;;22.11;60.67
74627;BME280;63132;52.268;5.192;2023-09-08T05:50:34;101519.78;;;22.62;59.29
74627;BME280;63132;52.268;5.192;2023-09-08T05:52:59;101524.63;;;22.34;59.86
74627;BME280;63132;52.268;5.192;2023-09-08T05:55:25;101527.31;;;22.65;58.91
74627;BME280;63132;52.268;5.192;2023-09-08T05:57:50;101525.28;;;22.65;59.51
74627;BME280;63132;52.268;5.192;2023-09-08T06:00:16;101517.44;;;22.60;59.44
74627;BME280;63132;52.268;5.192;2023-09-08T06:02:41;101525.75;;;22.36;60.10
74627;BME280;63132;52.268;5.192;2023-09-08T06:05:07;101520.09;;;22.64;59.66
74627;BME280;63132;52.268;5.192;2023-09-08T06:07:32;101525.56;;;22.77;59.74
74627;BME280;63132;52.268;5.192;2023-09-08T06:09:57;101528.72;;;22.97;59.11
74627;BME280;63132;52.268;5.192;2023-09-08T06:12:23;101535.91;;;23.07;58.64
74627;BME280;63132;52.268;5.192;2023-09-08T06:14:48;101536.22;;;23.18;58.24
74627;BME280;63132;52.268;5.192;2023-09-08T06:17:13;101540.44;;;23.23;58.42
74627;BME280;63132;52.268;5.192;2023-09-08T06:19:38;101549.41;;;23.12;57.93
74627;BME280;63132;52.268;5.192;2023-09-08T06:22:04;101544.22;;;23.20;57.90
74627;BME280;63132;52.268;5.192;2023-09-08T06:24:30;101549.59;;;23.60;57.07
74627;BME280;63132;52.268;5.192;2023-09-08T06:26:55;101548.19;;;23.65;57.10
74627;BME280;63132;52.268;5.192;2023-09-08T06:29:20;101547.47;;;23.79;56.76
74627;BME280;63132;52.268;5.192;2023-09-08T06:31:46;101542.19;;;23.72;56.83
74627;BME280;63132;52.268;5.192;2023-09-08T06:34:11;101544.50;;;24.07;56.33
74627;BME280;63132;52.268;5.192;2023-09-08T06:36:36;101552.81;;;24.10;56.28
74627;BME280;63132;52.268;5.192;2023-09-08T06:39:02;101550.97;;;24.07;56.20
74627;BME280;63132;52.268;5.192;2023-09-08T06:41:29;101552.50;;;24.08;56.06
74627;BME280;63132;52.268;5.192;2023-09-08T06:43:55;101551.19;;;24.18;55.93
74627;BME280;63132;52.268;5.192;2023-09-08T06:46:20;101545.00;;;24.53;55.11
74627;BME280;63132;52.268;5.192;2023-09-08T06:48:46;101547.38;;;24.69;53.83
74627;BME280;63132;52.268;5.192;2023-09-08T06:51:11;101549.63;;;24.80;54.16
74627;BME280;63132;52.268;5.192;2023-09-08T06:53:37;101549.06;;;24.91;53.71
74627;BME280;63132;52.268;5.192;2023-09-08T06:56:02;101558.53;;;25.02;53.64
74627;BME280;63132;52.268;5.192;2023-09-08T06:58:27;101554.34;;;24.98;53.21
74627;BME280;63132;52.268;5.192;2023-09-08T07:00:53;101557.69;;;24.96;53.49
74627;BME280;63132;52.268;5.192;2023-09-08T07:03:20;101556.13;;;25.10;52.94
74627;BME280;63132;52.268;5.192;2023-09-08T07:05:47;101560.63;;;25.46;52.48
74627;BME280;63132;52.268;5.192;2023-09-08T07:08:13;101561.03;;;25.39;52.80
74627;BME280;63132;52.268;5.192;2023-09-08T07:10:38;101559.72;;;25.55;52.27
74627;BME280;63132;52.268;5.192;2023-09-08T07:13:03;101553.09;;;25.58;51.77
74627;BME280;63132;52.268;5.192;2023-09-08T07:15:30;101552.88;;;25.76;51.90
74627;BME280;63132;52.268;5.192;2023-09-08T07:17:55;101550.59;;;25.95;51.07
74627;BME280;63132;52.268;5.192;2023-09-08T07:20:20;101547.88;;;25.86;51.65
74627;BME280;63132;52.268;5.192;2023-09-08T07:22:46;101553.19;;;25.78;51.60
74627;BME280;63132;52.268;5.192;2023-09-08T07:25:12;101551.09;;;25.93;51.61
74627;BME280;63132;52.268;5.192;2023-09-08T07:27:38;101551.78;;;25.88;51.92
74627;BME280;63132;52.268;5.192;2023-09-08T07:30:04;101564.44;;;26.28;50.64
74627;BME280;63132;52.268;5.192;2023-09-08T07:32:30;101558.28;;;26.30;51.34
74627;BME280;63132;52.268;5.192;2023-09-08T07:34:56;101555.59;;;26.61;50.50
74627;BME280;63132;52.268;5.192;2023-09-08T07:37:22;101562.88;;;26.88;49.62
74627;BME280;63132;52.268;5.192;2023-09-08T07:39:48;101564.19;;;26.67;50.34
74627;BME280;63132;52.268;5.192;2023-09-08T07:42:13;101566.34;;;26.98;49.60
74627;BME280;63132;52.268;5.192;2023-09-08T07:44:38;101563.13;;;27.11;49.95
74627;BME280;63132;52.268;5.192;2023-09-08T07:47:04;101560.28;;;27.11;50.02
74627;BME280;63132;52.268;5.192;2023-09-08T07:49:30;101559.22;;;27.34;49.18
74627;BME280;63132;52.268;5.192;2023-09-08T07:51:56;101558.47;;;27.39;48.72
74627;BME280;63132;52.268;5.192;2023-09-08T07:54:22;101561.31;;;27.39;49.27
74627;BME280;63132;52.268;5.192;2023-09-08T07:56:47;101560.44;;;27.59;47.96
74627;BME280;63132;52.268;5.192;2023-09-08T07:59:12;101559.28;;;27.71;48.44
74627;BME280;63132;52.268;5.192;2023-09-08T08:01:38;101562.13;;;27.71;48.61
74627;BME280;63132;52.268;5.192;2023-09-08T08:04:03;101551.59;;;27.51;49.05
74627;BME280;63132;52.268;5.192;2023-09-08T08:06:29;101553.34;;;27.75;48.42
74627;BME280;63132;52.268;5.192;2023-09-08T08:08:55;101556.75;;;27.84;48.84
74627;BME280;63132;52.268;5.192;2023-09-08T08:11:22;101552.34;;;27.83;48.34
74627;BME280;63132;52.268;5.192;2023-09-08T08:13:47;101550.78;;;28.25;47.69
74627;BME280;63132;52.268;5.192;2023-09-08T08:16:13;101550.88;;;28.42;47.51
74627;BME280;63132;52.268;5.192;2023-09-08T08:18:38;101546.72;;;28.32;47.44
74627;BME280;63132;52.268;5.192;2023-09-08T08:21:03;101555.25;;;28.37;46.99
74627;BME280;63132;52.268;5.192;2023-09-08T08:23:30;101556.91;;;28.61;46.59
74627;BME280;63132;52.268;5.192;2023-09-08T08:25:56;101552.00;;;28.73;47.03
74627;BME280;63132;52.268;5.192;2023-09-08T08:28:22;101546.81;;;28.65;47.00
74627;BME280;63132;52.268;5.192;2023-09-08T08:30:48;101539.88;;;28.89;46.51
74627;BME280;63132;52.268;5.192;2023-09-08T08:33:14;101540.38;;;28.82;47.17
74627;BME280;63132;52.268;5.192;2023-09-08T08:35:39;101536.03;;;29.03;46.89
74627;BME280;63132;52.268;5.192;2023-09-08T08:38:05;101534.50;;;29.24;46.36
74627;BME280;63132;52.268;5.192;2023-09-08T08:40:31;101532.66;;;29.27;46.76
74627;BME280;63132;52.268;5.192;2023-09-08T08:42:57;101534.25;;;29.28;47.31
74627;BME280;63132;52.268;5.192;2023-09-08T08:45:24;101530.09;;;29.52;46.59
74627;BME280;63132;52.268;5.192;2023-09-08T08:47:50;101534.72;;;29.71;45.71
74627;BME280;63132;52.268;5.192;2023-09-08T08:50:17;101538.16;;;29.53;46.51
74627;BME280;63132;52.268;5.192;2023-09-08T08:52:43;101538.34;;;29.89;45.61
74627;BME280;63132;52.268;5.192;2023-09-08T08:55:09;101539.91;;;29.90;45.32
74627;BME280;63132;52.268;5.192;2023-09-08T08:57:37;101533.13;;;29.87;45.65
74627;BME280;63132;52.268;5.192;2023-09-08T09:00:06;101539.91;;;29.84;45.02
74627;BME280;63132;52.268;5.192;2023-09-08T09:02:36;101544.53;;;30.04;45.13
74627;BME280;63132;52.268;5.192;2023-09-08T09:05:02;101543.53;;;29.96;45.76
74627;BME280;63132;52.268;5.192;2023-09-08T09:07:28;101544.56;;;30.10;45.37
74627;BME280;63132;52.268;5.192;2023-09-08T09:09:54;101548.59;;;30.37;44.28
74627;BME280;63132;52.268;5.192;2023-09-08T09:12:20;101551.75;;;30.27;44.86
74627;BME280;63132;52.268;5.192;2023-09-08T09:14:47;101550.09;;;30.49;44.58
74627;BME280;63132;52.268;5.192;2023-09-08T09:17:14;101553.19;;;30.56;44.24
74627;BME280;63132;52.268;5.192;2023-09-08T09:19:39;101551.31;;;30.65;44.71
74627;BME280;63132;52.268;5.192;2023-09-08T09:22:05;101547.16;;;30.71;44.18
74627;BME280;63132;52.268;5.192;2023-09-08T09:24:38;101548.91;;;30.80;43.51
74627;BME280;63132;52.268;5.192;2023-09-08T09:27:07;101546.53;;;30.84;43.25
74627;BME280;63132;52.268;5.192;2023-09-08T09:29:33;101551.47;;;30.83;44.14
74627;BME280;63132;52.268;5.192;2023-09-08T09:32:03;101552.50;;;30.92;43.90
74627;BME280;63132;52.268;5.192;2023-09-08T09:34:30;101556.97;;;31.17;43.05
74627;BME280;63132;52.268;5.192;2023-09-08T09:36:55;101551.28;;;31.11;43.20
74627;BME280;63132;52.268;5.192;2023-09-08T09:39:22;101560.78;;;31.36;42.90
74627;BME280;63132;52.268;5.192;2023-09-08T09:41:56;101552.97;;;31.37;41.88
74627;BME280;63132;52.268;5.192;2023-09-08T09:44:21;101549.38;;;31.31;42.01
74627;BME280;63132;52.268;5.192;2023-09-08T09:46:48;101543.72;;;31.50;41.69
74627;BME280;63132;52.268;5.192;2023-09-08T09:49:15;101550.94;;;31.56;41.65
74627;BME280;63132;52.268;5.192;2023-09-08T09:51:43;101542.41;;;31.51;41.64
74627;BME280;63132;52.268;5.192;2023-09-08T09:54:09;101549.63;;;31.27;41.72
74627;BME280;63132;52.268;5.192;2023-09-08T09:56:39;101544.03;;;31.46;42.31
74627;BME280;63132;52.268;5.192;2023-09-08T09:59:08;101539.25;;;31.54;41.62
74627;BME280;63132;52.268;5.192;2023-09-08T10:01:34;101543.03;;;31.68;41.22
74627;BME280;63132;52.268;5.192;2023-09-08T10:04:00;101540.91;;;31.99;40.29
74627;BME280;63132;52.268;5.192;2023-09-08T10:06:28;101540.09;;;32.04;40.73
74627;BME280;63132;52.268;5.192;2023-09-08T10:08:58;101536.25;;;31.95;40.77
74627;BME280;63132;52.268;5.192;2023-09-08T10:11:27;101537.75;;;31.78;41.14
74627;BME280;63132;52.268;5.192;2023-09-08T10:13:58;101533.97;;;32.13;40.07
74627;BME280;63132;52.268;5.192;2023-09-08T10:16:26;101540.44;;;31.94;40.18
74627;BME280;63132;52.268;5.192;2023-09-08T10:18:52;101535.38;;;31.82;40.17
74627;BME280;63132;52.268;5.192;2023-09-08T10:21:18;101523.84;;;32.31;39.74
74627;BME280;63132;52.268;5.192;2023-09-08T10:23:54;101528.00;;;32.35;38.55
74627;BME280;63132;52.268;5.192;2023-09-08T10:26:25;101528.94;;;32.43;38.69
74627;BME280;63132;52.268;5.192;2023-09-08T10:28:56;101523.56;;;32.34;38.93
74627;BME280;63132;52.268;5.192;2023-09-08T10:31:25;101532.00;;;32.45;39.29
74627;BME280;63132;52.268;5.192;2023-09-08T10:33:53;101532.44;;;32.31;39.13
74627;BME280;63132;52.268;5.192;2023-09-08T10:36:19;101533.22;;;32.31;38.85
74627;BME280;63132;52.268;5.192;2023-09-08T10:38:45;101534.03;;;32.69;38.64
74627;BME280;63132;52.268;5.192;2023-09-08T10:41:25;101535.03;;;32.53;38.95
74627;BME280;63132;52.268;5.192;2023-09-08T10:43:55;101534.97;;;32.59;38.83
74627;BME280;63132;52.268;5.192;2023-09-08T10:46:29;101528.84;;;32.68;39.23
74627;BME280;63132;52.268;5.192;2023-09-08T10:49:02;101535.38;;;32.87;38.47
74627;BME280;63132;52.268;5.192;2023-09-08T10:51:32;101528.84;;;33.19;38.68
74627;BME280;63132;52.268;5.192;2023-09-08T10:53:58;101527.53;;;32.88;38.06
74627;BME280;63132;52.268;5.192;2023-09-08T10:56:46;101531.56;;;32.79;38.05
74627;BME280;63132;52.268;5.192;2023-09-08T10:59:13;101527.75;;;32.52;39.14
74627;BME280;63132;52.268;5.192;2023-09-08T11:01:39;101535.50;;;32.95;38.82
74627;BME280;63132;52.268;5.192;2023-09-08T11:04:04;101534.09;;;33.01;37.34
74627;BME280;63132;52.268;5.192;2023-09-08T11:06:33;101530.22;;;32.99;37.55
74627;BME280;63132;52.268;5.192;2023-09-08T11:09:06;101528.56;;;32.85;37.64
74627;BME280;63132;52.268;5.192;2023-09-08T11:11:33;101524.16;;;32.84;37.24
74627;BME280;63132;52.268;5.192;2023-09-08T11:13:58;101523.94;;;33.00;37.74
74627;BME280;63132;52.268;5.192;2023-09-08T11:16:25;101530.47;;;33.01;38.07
74627;BME280;63132;52.268;5.192;2023-09-08T11:18:55;101536.06;;;33.25;37.75
74627;BME280;63132;52.268;5.192;2023-09-08T11:21:20;101527.03;;;33.34;37.06
74627;BME280;63132;52.268;5.192;2023-09-08T11:23:46;101532.97;;;33.37;37.19
74627;BME280;63132;52.268;5.192;2023-09-08T11:26:12;101531.84;;;33.45;36.67
74627;BME280;63132;52.268;5.192;2023-09-08T11:28:37;101535.56;;;33.40;37.06
74627;BME280;63132;52.268;5.192;2023-09-08T11:31:03;101532.41;;;33.25;37.25
74627;BME280;63132;52.268;5.192;2023-09-08T11:33:33;101528.72;;;33.43;37.30
74627;BME280;63132;52.268;5.192;2023-09-08T11:35:59;101532.31;;;33.76;36.17
74627;BME280;63132;52.268;5.192;2023-09-08T11:38:25;101534.53;;;33.83;35.82
74627;BME280;63132;52.268;5.192;2023-09-08T11:40:53;101528.56;;;34.21;35.86
74627;BME280;63132;52.268;5.192;2023-09-08T11:43:19;101534.28;;;34.34;35.63
74627;BME280;63132;52.268;5.192;2023-09-08T11:45:44;101533.88;;;34.43;36.35
74627;BME280;63132;52.268;5.192;2023-09-08T11:48:09;101530.53;;;34.26;36.16
74627;BME280;63132;52.268;5.192;2023-09-08T11:50:35;101532.31;;;34.29;35.92
74627;BME280;63132;52.268;5.192;2023-09-08T11:53:00;101526.31;;;34.27;35.75
74627;BME280;63132;52.268;5.192;2023-09-08T11:55:28;101527.44;;;34.24;35.93
74627;BME280;63132;52.268;5.192;2023-09-08T11:57:54;101537.59;;;33.72;36.18
74627;BME280;63132;52.268;5.192;2023-09-08T12:00:23;101530.69;;;34.07;35.61
74627;BME280;63132;52.268;5.192;2023-09-08T12:02:49;101530.00;;;34.14;35.64
74627;BME280;63132;52.268;5.192;2023-09-08T12:05:27;101523.91;;;34.31;35.43
74627;BME280;63132;52.268;5.192;2023-09-08T12:07:55;101524.88;;;34.33;35.13
74627;BME280;63132;52.268;5.192;2023-09-08T12:10:25;101521.69;;;34.37;35.25
74627;BME280;63132;52.268;5.192;2023-09-08T12:12:54;101525.44;;;34.32;35.07
74627;BME280;63132;52.268;5.192;2023-09-08T12:15:36;101520.41;;;33.98;35.23
74627;BME280;63132;52.268;5.192;2023-09-08T12:18:12;101529.66;;;34.04;34.94
74627;BME280;63132;52.268;5.192;2023-09-08T12:20:40;101522.81;;;34.21;34.78
74627;BME280;63132;52.268;5.192;2023-09-08T12:23:19;101530.09;;;34.35;34.89
74627;BME280;63132;52.268;5.192;2023-09-08T12:28:11;101516.13;;;34.39;35.37
74627;BME280;63132;52.268;5.192;2023-09-08T12:30:37;101515.75;;;34.69;35.02
74627;BME280;63132;52.268;5.192;2023-09-08T12:33:03;101518.03;;;34.84;35.02
74627;BME280;63132;52.268;5.192;2023-09-08T12:35:29;101511.94;;;34.53;35.27
74627;BME280;63132;52.268;5.192;2023-09-08T12:38:03;101509.34;;;34.63;35.04
74627;BME280;63132;52.268;5.192;2023-09-08T12:40:33;101506.50;;;34.84;35.21
74627;BME280;63132;52.268;5.192;2023-09-08T12:42:59;101501.03;;;34.73;34.66
74627;BME280;63132;52.268;5.192;2023-09-08T12:45:26;101513.41;;;34.81;35.41
74627;BME280;63132;52.268;5.192;2023-09-08T12:47:51;101497.47;;;35.01;35.37
74627;BME280;63132;52.268;5.192;2023-09-08T12:50:17;101500.72;;;35.18;34.51